createdAt,value
2018-08-11T00:02:25.098Z,95.70
2018-08-11T00:04:53.194Z,95.70
2018-08-11T00:07:21.303Z,95.70
2018-08-11T00:09:49.414Z,95.70
2018-08-11T00:12:17.514Z,95.70
2018-08-11T00:14:45.662Z,96.00
2018-08-11T00:17:13.820Z,95.70
2018-08-11T00:19:41.934Z,95.70
2018-08-11T00:22:10.077Z,95.70
2018-08-11T00:24:38.170Z,95.80
2018-08-11T00:27:06.256Z,95.70
2018-08-11T00:29:34.325Z,95.70
2018-08-11T00:32:02.393Z,95.70
2018-08-11T00:34:30.501Z,95.70
2018-08-11T00:36:58.577Z,95.70
2018-08-11T00:39:26.643Z,95.80
2018-08-11T00:41:54.730Z,95.70
2018-08-11T00:44:22.869Z,95.70
2018-08-11T00:46:50.974Z,95.80
2018-08-11T00:49:19.166Z,95.70
2018-08-11T00:51:47.217Z,95.70
2018-08-11T00:54:15.306Z,95.70
2018-08-11T00:56:43.459Z,95.70
2018-08-11T00:59:11.522Z,95.70
2018-08-11T01:01:39.569Z,95.70
2018-08-11T01:04:07.750Z,95.70
2018-08-11T01:06:35.835Z,95.60
2018-08-11T01:09:06.046Z,95.60
2018-08-11T01:11:34.120Z,95.60
2018-08-11T01:14:03.485Z,95.60
2018-08-11T01:16:31.526Z,95.70
2018-08-11T01:18:59.579Z,95.60
2018-08-11T01:21:27.641Z,95.70
2018-08-11T01:23:55.743Z,95.70
2018-08-11T01:26:23.821Z,95.70
2018-08-11T01:28:51.899Z,95.60
2018-08-11T01:31:19.970Z,95.70
2018-08-11T01:33:48.010Z,95.70
2018-08-11T01:36:16.064Z,95.90
2018-08-11T01:38:44.158Z,95.70
2018-08-11T01:41:12.212Z,95.70
2018-08-11T01:43:40.348Z,95.60
2018-08-11T01:46:08.463Z,95.70
2018-08-11T01:48:36.505Z,95.70
2018-08-11T01:51:04.578Z,95.70
2018-08-11T01:53:32.771Z,95.70
2018-08-11T01:56:00.843Z,95.70
2018-08-11T01:58:28.921Z,95.70
2018-08-11T02:00:56.990Z,95.70
2018-08-11T02:03:25.045Z,95.70
2018-08-11T02:05:53.094Z,95.70
2018-08-11T02:08:21.199Z,95.70
2018-08-11T02:10:49.338Z,95.70
2018-08-11T02:13:17.449Z,95.70
2018-08-11T02:15:45.535Z,95.70
2018-08-11T02:18:13.591Z,95.80
2018-08-11T02:20:41.699Z,95.80
2018-08-11T02:23:09.790Z,95.80
2018-08-11T02:25:37.938Z,95.80
2018-08-11T02:28:06.108Z,95.80
2018-08-11T02:30:34.196Z,95.80
2018-08-11T02:33:02.312Z,95.80
2018-08-11T02:35:30.402Z,95.80
2018-08-11T02:37:58.514Z,95.80
2018-08-11T02:40:26.584Z,95.80
2018-08-11T02:42:54.710Z,95.80
2018-08-11T02:45:22.806Z,95.80
2018-08-11T02:47:50.894Z,95.80
2018-08-11T02:50:18.962Z,95.80
2018-08-11T02:52:47.196Z,95.80
2018-08-11T02:55:15.247Z,95.80
2018-08-11T02:57:43.299Z,95.80
2018-08-11T03:00:12.226Z,95.80
2018-08-11T03:02:40.404Z,95.80
2018-08-11T03:05:08.461Z,95.80
2018-08-11T03:07:37.072Z,95.80
2018-08-11T03:10:06.092Z,95.80
2018-08-11T03:12:34.210Z,95.80
2018-08-11T03:15:02.358Z,95.80
2018-08-11T03:17:30.430Z,95.80
2018-08-11T03:19:58.546Z,95.80
2018-08-11T03:22:26.632Z,95.80
2018-08-11T03:24:54.679Z,95.80
2018-08-11T03:27:22.769Z,95.80
2018-08-11T03:29:50.850Z,95.80
2018-08-11T03:32:18.908Z,95.80
2018-08-11T03:34:46.998Z,95.80
2018-08-11T03:37:15.118Z,95.80
2018-08-11T03:39:43.237Z,95.80
2018-08-11T03:42:11.309Z,95.80
2018-08-11T03:44:39.364Z,95.80
2018-08-11T03:47:07.417Z,95.80
2018-08-11T03:49:35.475Z,95.80
2018-08-11T03:52:03.551Z,95.80
2018-08-11T03:54:31.645Z,95.80
2018-08-11T03:56:59.718Z,95.80
2018-08-11T03:59:27.801Z,95.80
2018-08-11T04:01:55.877Z,95.80
2018-08-11T04:04:23.930Z,95.80
2018-08-11T04:06:51.981Z,95.80
2018-08-11T04:09:20.040Z,95.80
2018-08-11T04:11:48.110Z,95.80
2018-08-11T04:14:16.254Z,95.80
2018-08-11T04:16:44.366Z,95.80
2018-08-11T04:19:12.410Z,95.70
2018-08-11T04:21:40.558Z,95.70
2018-08-11T04:24:09.061Z,95.70
2018-08-11T04:26:37.154Z,95.70
2018-08-11T04:29:05.318Z,95.70
2018-08-11T04:31:33.455Z,95.70
2018-08-11T04:34:01.568Z,95.70
2018-08-11T04:36:29.674Z,95.60
2018-08-11T04:38:57.832Z,95.60
2018-08-11T04:41:25.894Z,95.50
2018-08-11T04:43:53.998Z,95.50
2018-08-11T04:46:22.118Z,95.40
2018-08-11T04:48:50.202Z,95.40
2018-08-11T04:51:18.407Z,95.40
2018-08-11T04:53:46.530Z,95.50
2018-08-11T04:56:14.642Z,95.40
2018-08-11T04:58:42.766Z,95.40
2018-08-11T05:01:10.829Z,95.30
2018-08-11T05:03:38.911Z,95.30
2018-08-11T05:06:07.076Z,95.30
2018-08-11T05:08:35.122Z,95.20
2018-08-11T05:11:03.174Z,95.20
2018-08-11T05:13:31.237Z,95.20
2018-08-11T05:15:59.340Z,95.10
2018-08-11T05:18:27.431Z,95.00
2018-08-11T05:20:55.501Z,95.00
2018-08-11T05:23:23.557Z,95.00
2018-08-11T05:25:51.780Z,95.10
2018-08-11T05:28:19.934Z,95.00
2018-08-11T05:30:48.038Z,95.10
2018-08-11T05:33:16.217Z,94.50
2018-08-11T05:35:44.211Z,95.00
2018-08-11T05:38:12.274Z,94.90
2018-08-11T05:40:40.345Z,95.10
2018-08-11T05:43:08.455Z,95.10
2018-08-11T05:45:37.422Z,95.10
2018-08-11T05:48:05.799Z,95.10
2018-08-11T05:50:34.134Z,95.10
2018-08-11T05:53:02.206Z,95.00
2018-08-11T05:55:30.629Z,95.10
2018-08-11T05:57:58.750Z,95.00
2018-08-11T06:00:26.830Z,95.10
2018-08-11T06:02:54.890Z,95.00
2018-08-11T06:05:22.950Z,94.90
2018-08-11T06:07:51.025Z,94.90
2018-08-11T06:10:19.119Z,94.90
2018-08-11T06:12:47.182Z,94.80
2018-08-11T06:15:15.240Z,94.80
2018-08-11T06:17:43.436Z,94.70
2018-08-11T06:20:11.530Z,94.60
2018-08-11T06:22:39.604Z,94.70
2018-08-11T06:25:09.326Z,94.60
2018-08-11T06:27:37.421Z,94.70
2018-08-11T06:30:06.542Z,94.60
2018-08-11T06:32:34.633Z,95.00
2018-08-11T06:35:02.686Z,94.60
2018-08-11T06:37:30.836Z,94.60
2018-08-11T06:39:58.933Z,94.60
2018-08-11T06:42:27.026Z,94.50
2018-08-11T06:44:55.118Z,94.50
2018-08-11T06:47:23.171Z,94.60
2018-08-11T06:49:51.223Z,94.60
2018-08-11T06:52:19.291Z,94.60
2018-08-11T06:54:47.363Z,94.60
2018-08-11T06:57:15.471Z,94.60
2018-08-11T06:59:43.584Z,94.60
2018-08-11T07:02:11.661Z,94.60
2018-08-11T07:04:39.738Z,94.60
2018-08-11T07:07:07.838Z,94.60
2018-08-11T07:09:35.905Z,94.60
2018-08-11T07:12:03.976Z,94.60
2018-08-11T07:14:32.061Z,94.60
2018-08-11T07:17:00.239Z,94.60
2018-08-11T07:19:28.689Z,94.60
2018-08-11T07:21:56.786Z,94.60
2018-08-11T07:24:24.960Z,94.50
2018-08-11T07:26:53.010Z,94.80
2018-08-11T07:29:21.062Z,94.50
2018-08-11T07:31:49.154Z,94.40
2018-08-11T07:34:17.245Z,94.40
2018-08-11T07:36:45.452Z,94.30
2018-08-11T07:39:13.475Z,94.30
2018-08-11T07:41:41.530Z,94.30
2018-08-11T07:44:09.658Z,94.20
2018-08-11T07:46:37.764Z,94.20
2018-08-11T07:49:06.052Z,94.20
2018-08-11T07:51:34.139Z,94.20
2018-08-11T07:54:02.194Z,94.30
2018-08-11T07:56:30.287Z,94.30
2018-08-11T07:58:58.350Z,94.30
2018-08-11T08:01:26.507Z,94.30
2018-08-11T08:03:54.528Z,94.30
2018-08-11T08:06:22.634Z,94.20
2018-08-11T08:08:50.736Z,94.20
2018-08-11T08:11:18.799Z,94.20
2018-08-11T08:13:46.944Z,94.20
2018-08-11T08:16:14.902Z,94.30
2018-08-11T08:18:43.034Z,94.40
2018-08-11T08:21:11.174Z,94.50
2018-08-11T08:23:39.287Z,94.50
2018-08-11T08:26:07.416Z,94.90
2018-08-11T08:28:35.437Z,94.80
2018-08-11T08:31:03.555Z,94.70
2018-08-11T08:33:31.685Z,94.70
2018-08-11T08:36:00.210Z,94.70
2018-08-11T08:38:28.515Z,94.60
2018-08-11T08:40:56.623Z,94.60
2018-08-11T08:43:24.741Z,94.60
2018-08-11T08:45:52.888Z,94.60
2018-08-11T08:48:20.970Z,94.60
2018-08-11T08:50:49.062Z,94.50
2018-08-11T08:53:17.165Z,94.50
2018-08-11T08:55:45.210Z,94.50
2018-08-11T08:58:13.301Z,94.50
2018-08-11T09:00:41.454Z,94.50
2018-08-11T09:03:09.550Z,94.50
2018-08-11T09:05:37.617Z,94.50
2018-08-11T09:08:05.741Z,94.40
2018-08-11T09:10:33.850Z,94.30
2018-08-11T09:13:01.947Z,94.20
2018-08-11T09:15:30.076Z,94.10
2018-08-11T09:17:58.136Z,94.10
2018-08-11T09:20:26.198Z,94.10
2018-08-11T09:22:54.282Z,94.10
2018-08-11T09:25:22.387Z,94.00
2018-08-11T09:27:50.493Z,94.00
2018-08-11T09:35:13.034Z,93.90
2018-08-11T09:37:41.131Z,93.90
2018-08-11T09:40:09.202Z,93.90
2018-08-11T09:42:37.275Z,93.80
2018-08-11T09:45:05.618Z,93.80
2018-08-11T09:47:33.705Z,93.80
2018-08-11T09:50:01.807Z,93.80
2018-08-11T09:52:29.914Z,93.80
2018-08-11T09:54:57.990Z,93.70
2018-08-11T09:57:26.086Z,93.70
2018-08-11T09:59:54.249Z,93.70
2018-08-11T10:02:22.834Z,93.70
2018-08-11T10:04:50.918Z,94.00
2018-08-11T10:07:19.209Z,93.70
2018-08-11T10:09:47.278Z,93.80
2018-08-11T10:12:15.406Z,93.70
2018-08-11T10:14:43.548Z,93.70
2018-08-11T10:17:11.622Z,93.60
2018-08-11T10:19:39.751Z,93.60
2018-08-11T10:22:07.878Z,93.70
2018-08-11T10:24:36.003Z,93.70
2018-08-11T10:27:04.069Z,93.70
2018-08-11T10:29:32.188Z,93.60
2018-08-11T10:32:00.250Z,93.60
2018-08-11T10:34:28.414Z,93.60
2018-08-11T10:36:57.451Z,93.60
2018-08-11T10:39:25.519Z,93.60
2018-08-11T10:41:53.737Z,93.60
2018-08-11T10:44:21.786Z,93.60
2018-08-11T10:46:49.859Z,93.60
2018-08-11T10:49:18.048Z,93.60
2018-08-11T10:51:46.146Z,93.50
2018-08-11T10:54:14.265Z,93.50
2018-08-11T10:56:42.463Z,93.50
2018-08-11T10:59:10.574Z,93.50
2018-08-11T11:01:38.713Z,93.50
2018-08-11T11:04:06.786Z,93.50
2018-08-11T11:06:34.869Z,93.50
2018-08-11T11:09:02.966Z,93.50
2018-08-11T11:11:31.058Z,93.50
2018-08-11T11:13:59.166Z,93.50
2018-08-11T11:16:27.254Z,93.40
2018-08-11T11:18:55.321Z,93.40
2018-08-11T11:21:23.398Z,93.40
2018-08-11T11:23:51.574Z,93.40
2018-08-11T11:26:19.662Z,93.40
2018-08-11T11:28:47.739Z,93.40
2018-08-11T11:31:15.801Z,93.30
2018-08-11T11:33:43.961Z,93.30
2018-08-11T11:36:12.058Z,93.30
2018-08-11T11:38:40.163Z,93.20
2018-08-11T11:41:08.278Z,93.20
2018-08-11T11:43:36.432Z,93.10
2018-08-11T11:46:04.607Z,93.20
2018-08-11T11:48:32.681Z,93.20
2018-08-11T11:51:00.786Z,93.20
2018-08-11T11:53:28.861Z,93.10
2018-08-11T11:55:56.974Z,93.10
2018-08-11T11:58:25.096Z,93.10
2018-08-11T12:00:53.215Z,93.10
2018-08-11T12:03:21.289Z,93.10
2018-08-11T12:05:49.416Z,93.20
2018-08-11T12:08:17.486Z,93.20
2018-08-11T12:10:45.582Z,93.10
2018-08-11T12:13:13.667Z,93.20
2018-08-11T12:15:41.759Z,93.20
2018-08-11T12:18:09.870Z,93.30
2018-08-11T12:20:38.042Z,93.30
2018-08-11T12:23:06.126Z,93.30
2018-08-11T12:25:34.243Z,93.30
2018-08-11T12:28:02.302Z,93.30
2018-08-11T12:30:30.410Z,93.20
2018-08-11T12:32:58.539Z,93.20
2018-08-11T12:35:26.646Z,93.20
2018-08-11T12:37:54.764Z,93.10
2018-08-11T12:40:22.778Z,93.10
2018-08-11T12:42:50.885Z,93.20
2018-08-11T12:45:20.066Z,93.10
2018-08-11T12:47:48.142Z,93.20
2018-08-11T12:50:16.255Z,93.20
2018-08-11T12:52:44.354Z,93.20
2018-08-11T12:55:12.454Z,93.20
2018-08-11T12:57:40.598Z,93.10
2018-08-11T13:00:09.690Z,93.10
2018-08-11T13:02:37.959Z,93.10
2018-08-11T13:05:06.112Z,93.10
2018-08-11T13:07:34.249Z,93.10
2018-08-11T13:10:02.330Z,93.00
2018-08-11T13:12:30.895Z,93.00
2018-08-11T13:14:59.102Z,93.00
2018-08-11T13:17:27.218Z,93.00
2018-08-11T13:19:55.319Z,93.00
2018-08-11T13:22:23.490Z,93.00
2018-08-11T13:24:51.602Z,93.00
2018-08-11T13:27:19.727Z,92.90
2018-08-11T13:29:47.805Z,92.90
2018-08-11T13:32:15.946Z,92.90
2018-08-11T13:34:44.059Z,92.80
2018-08-11T13:37:12.129Z,92.80
2018-08-11T13:39:45.317Z,92.90
2018-08-11T13:42:13.446Z,92.90
2018-08-11T13:44:41.529Z,92.80
2018-08-11T13:47:09.610Z,92.80
2018-08-11T13:49:37.739Z,92.80
2018-08-11T13:52:05.846Z,92.80
2018-08-11T13:54:33.983Z,92.80
2018-08-11T13:57:02.086Z,92.80
2018-08-11T13:59:30.194Z,92.70
2018-08-11T14:01:58.230Z,92.70
2018-08-11T14:04:26.333Z,92.70
2018-08-11T14:06:54.466Z,92.70
2018-08-11T14:09:22.587Z,92.70
2018-08-11T14:11:50.688Z,92.80
2018-08-11T14:14:18.819Z,92.80
2018-08-11T14:16:46.854Z,92.80
2018-08-11T14:19:14.983Z,92.90
2018-08-11T14:21:43.146Z,92.80
2018-08-11T14:24:11.310Z,92.80
2018-08-11T14:26:39.488Z,92.80
2018-08-11T14:29:07.626Z,92.80
2018-08-11T14:31:35.712Z,92.70
2018-08-11T14:34:03.859Z,92.70
2018-08-11T14:36:31.990Z,92.70
2018-08-11T14:39:00.063Z,92.70
2018-08-11T14:41:28.177Z,92.70
2018-08-11T14:43:56.250Z,92.70
2018-08-11T14:46:24.343Z,92.80
2018-08-11T14:48:52.690Z,92.80
2018-08-11T14:51:20.740Z,92.80
2018-08-11T14:53:48.878Z,92.80
2018-08-11T14:56:16.961Z,92.80
2018-08-11T14:58:45.067Z,92.80
2018-08-11T15:01:13.151Z,92.80
2018-08-11T15:03:41.262Z,92.80
2018-08-11T15:06:09.415Z,92.80
2018-08-11T15:08:37.566Z,92.80
2018-08-11T15:11:05.648Z,92.70
2018-08-11T15:13:33.733Z,92.70
2018-08-11T15:16:01.913Z,92.60
2018-08-11T15:18:29.966Z,92.70
2018-08-11T15:20:58.038Z,92.70
2018-08-11T15:23:26.105Z,92.70
2018-08-11T15:25:54.450Z,92.70
2018-08-11T15:28:22.558Z,92.60
2018-08-11T15:30:50.665Z,92.70
2018-08-11T15:33:18.744Z,92.70
2018-08-11T15:35:46.843Z,92.70
2018-08-11T15:38:14.966Z,92.70
2018-08-11T15:40:43.143Z,92.70
2018-08-11T15:43:11.252Z,92.70
2018-08-11T15:45:39.330Z,93.00
2018-08-11T15:48:07.412Z,92.70
2018-08-11T15:50:35.573Z,92.70
2018-08-11T15:53:03.726Z,92.70
2018-08-11T15:55:31.791Z,92.70
2018-08-11T15:57:59.885Z,92.70
2018-08-11T16:00:28.040Z,92.60
2018-08-11T16:02:56.232Z,92.60
2018-08-11T16:05:25.005Z,92.70
2018-08-11T16:07:53.157Z,92.70
2018-08-11T16:10:21.190Z,92.70
2018-08-11T16:12:49.354Z,92.70
2018-08-11T16:15:17.482Z,92.70
2018-08-11T16:17:45.526Z,92.70
2018-08-11T16:20:13.835Z,92.70
2018-08-11T16:22:42.826Z,92.60
2018-08-11T16:25:10.939Z,92.60
2018-08-11T16:27:39.034Z,92.70
2018-08-11T16:30:09.178Z,92.60
2018-08-11T16:32:37.386Z,92.60
2018-08-11T16:35:05.438Z,92.50
2018-08-11T16:37:33.612Z,92.50
2018-08-11T16:40:01.866Z,92.40
2018-08-11T16:42:29.943Z,92.50
2018-08-11T16:44:58.123Z,92.50
2018-08-11T16:47:26.266Z,92.60
2018-08-11T16:49:54.402Z,92.50
2018-08-11T16:52:22.470Z,92.50
2018-08-11T16:54:50.566Z,92.50
2018-08-11T16:57:18.685Z,92.50
2018-08-11T16:59:46.762Z,92.50
2018-08-11T17:02:14.818Z,92.40
2018-08-11T17:04:42.925Z,92.40
2018-08-11T17:07:11.058Z,92.50
2018-08-11T17:09:39.126Z,92.50
2018-08-11T17:12:07.294Z,92.50
2018-08-11T17:14:35.423Z,92.50
2018-08-11T17:17:03.478Z,92.60
2018-08-11T17:19:31.554Z,92.60
2018-08-11T17:21:59.695Z,92.50
2018-08-11T17:24:27.829Z,92.60
2018-08-11T17:26:55.949Z,92.60
2018-08-11T17:29:24.048Z,92.60
2018-08-11T17:31:52.130Z,92.60
2018-08-11T17:34:20.266Z,92.60
2018-08-11T17:36:48.358Z,92.50
2018-08-11T17:39:16.449Z,92.60
2018-08-11T17:41:44.600Z,92.60
2018-08-11T17:44:12.644Z,92.60
2018-08-11T17:46:40.734Z,92.50
2018-08-11T17:49:08.943Z,92.50
2018-08-11T17:51:36.938Z,92.70
2018-08-11T17:54:05.018Z,92.40
2018-08-11T17:56:33.134Z,92.30
2018-08-11T17:59:01.255Z,92.30
2018-08-11T18:01:29.333Z,92.30
2018-08-11T18:03:57.417Z,92.30
2018-08-11T18:06:25.506Z,92.30
2018-08-11T18:08:53.630Z,92.30
2018-08-11T18:11:21.730Z,92.40
2018-08-11T18:13:49.803Z,92.40
2018-08-11T18:16:17.906Z,92.30
2018-08-11T18:18:46.051Z,92.30
2018-08-11T18:21:14.159Z,92.30
2018-08-11T18:23:42.214Z,92.20
2018-08-11T18:26:10.290Z,92.20
2018-08-11T18:28:38.442Z,92.20
2018-08-11T18:31:06.499Z,92.20
2018-08-11T18:33:34.630Z,92.00
2018-08-11T18:36:02.779Z,92.10
2018-08-11T18:38:30.968Z,92.10
2018-08-11T18:40:59.142Z,92.00
2018-08-11T18:43:27.367Z,92.20
2018-08-11T18:45:55.438Z,92.10
2018-08-11T18:48:23.600Z,92.10
2018-08-11T18:50:51.730Z,92.10
2018-08-11T18:53:19.875Z,92.20
2018-08-11T18:55:48.108Z,92.30
2018-08-11T18:58:16.242Z,92.20
2018-08-11T19:00:44.349Z,92.20
2018-08-11T19:03:12.423Z,92.30
2018-08-11T19:05:40.498Z,92.30
2018-08-11T19:08:08.662Z,92.40
2018-08-11T19:10:36.785Z,92.30
2018-08-11T19:13:04.995Z,92.30
2018-08-11T19:15:33.075Z,92.30
2018-08-11T19:18:01.158Z,92.40
2018-08-11T19:20:29.282Z,92.40
2018-08-11T19:22:57.510Z,92.50
2018-08-11T19:25:25.585Z,92.50
2018-08-11T19:27:53.679Z,92.50
2018-08-11T19:30:21.904Z,92.50
2018-08-11T19:32:49.974Z,92.50
2018-08-11T19:35:18.070Z,92.50
2018-08-11T19:37:46.145Z,92.50
2018-08-11T19:40:14.220Z,92.50
2018-08-11T19:42:42.286Z,92.60
2018-08-11T19:45:11.534Z,92.60
2018-08-11T19:47:39.646Z,92.70
2018-08-11T19:50:08.723Z,92.70
2018-08-11T19:52:36.818Z,92.80
2018-08-11T19:55:05.274Z,92.80
2018-08-11T19:57:33.334Z,92.90
2018-08-11T20:00:01.410Z,92.90
2018-08-11T20:02:29.473Z,92.90
2018-08-11T20:04:57.605Z,92.90
2018-08-11T20:07:25.762Z,93.00
2018-08-11T20:09:53.856Z,93.00
2018-08-11T20:12:21.964Z,93.10
2018-08-11T20:14:50.026Z,93.10
2018-08-11T20:17:18.286Z,93.10
2018-08-11T20:19:46.390Z,93.10
2018-08-11T20:22:18.877Z,93.20
2018-08-11T20:24:47.406Z,93.20
2018-08-11T20:27:16.038Z,93.20
2018-08-11T20:29:44.149Z,93.20
2018-08-11T20:32:13.502Z,93.20
2018-08-11T20:34:42.304Z,93.20
2018-08-11T20:37:11.334Z,93.30
2018-08-11T20:39:39.413Z,93.30
2018-08-11T20:42:07.585Z,93.30
2018-08-11T20:44:35.912Z,93.30
2018-08-11T20:47:03.982Z,93.30
2018-08-11T20:49:32.057Z,93.30
2018-08-11T20:52:00.267Z,93.40
2018-08-11T20:54:28.593Z,93.40
2018-08-11T20:56:56.711Z,93.40
2018-08-11T20:59:24.798Z,93.40
2018-08-11T21:01:52.962Z,93.40
2018-08-11T21:04:20.982Z,93.40
2018-08-11T21:06:49.090Z,93.40
2018-08-11T21:09:17.159Z,93.40
2018-08-11T21:11:45.217Z,93.40
2018-08-11T21:14:13.291Z,93.40
2018-08-11T21:16:41.358Z,93.40
2018-08-11T21:19:09.434Z,93.50
2018-08-11T21:21:37.605Z,93.30
2018-08-11T21:24:05.654Z,93.50
2018-08-11T21:26:33.738Z,93.50
2018-08-11T21:29:01.846Z,93.50
2018-08-11T21:31:30.027Z,93.50
2018-08-11T21:33:58.082Z,93.50
2018-08-11T21:36:26.178Z,93.50
2018-08-11T21:38:54.274Z,93.50
2018-08-11T21:41:22.354Z,93.50
2018-08-11T21:43:50.446Z,93.50
2018-08-11T21:46:18.529Z,93.50
2018-08-11T21:48:46.611Z,93.50
2018-08-11T21:51:14.702Z,93.50
2018-08-11T21:53:42.871Z,93.50
2018-08-11T21:56:10.922Z,93.50
2018-08-11T21:58:39.094Z,93.60
2018-08-11T22:01:13.618Z,93.60
2018-08-11T22:03:42.558Z,93.50
2018-08-11T22:06:10.658Z,93.60
2018-08-11T22:08:38.847Z,93.50
2018-08-11T22:11:07.058Z,93.50
2018-08-11T22:13:35.243Z,93.50
2018-08-11T22:16:04.338Z,93.50
2018-08-11T22:18:32.494Z,93.50
2018-08-11T22:21:00.571Z,93.50
2018-08-11T22:23:28.759Z,93.50
2018-08-11T22:25:57.898Z,93.60
2018-08-11T22:28:25.954Z,93.50
2018-08-11T22:30:54.031Z,93.50
2018-08-11T22:33:22.181Z,93.50
2018-08-11T22:35:50.310Z,93.50
2018-08-11T22:38:18.294Z,93.50
2018-08-11T22:40:46.402Z,93.50
2018-08-11T22:43:14.466Z,93.50
2018-08-11T22:45:42.560Z,93.60
2018-08-11T22:48:10.743Z,93.50
2018-08-11T22:50:38.971Z,93.50
2018-08-11T22:53:07.022Z,93.50
2018-08-11T22:55:35.106Z,93.60
2018-08-11T22:58:03.173Z,93.50
2018-08-11T23:00:31.324Z,93.60
2018-08-11T23:02:59.474Z,93.50
2018-08-11T23:05:27.541Z,93.50
2018-08-11T23:07:55.590Z,93.50
2018-08-11T23:10:23.637Z,93.50
2018-08-11T23:12:51.705Z,93.50
2018-08-11T23:15:19.843Z,93.60
2018-08-11T23:17:50.102Z,93.50
2018-08-11T23:20:18.178Z,93.50
2018-08-11T23:22:46.398Z,93.60
2018-08-11T23:25:15.031Z,93.60
2018-08-11T23:27:43.081Z,93.50
2018-08-11T23:30:12.590Z,93.50
2018-08-11T23:32:41.740Z,93.50
2018-08-11T23:35:10.113Z,93.50
2018-08-11T23:37:38.404Z,93.50
2018-08-11T23:40:07.315Z,93.50
2018-08-11T23:42:35.661Z,93.50
2018-08-11T23:45:04.558Z,93.50
2018-08-11T23:47:32.676Z,93.40
2018-08-11T23:50:00.736Z,93.50
2018-08-11T23:52:29.587Z,93.50
2018-08-11T23:54:57.678Z,93.40
2018-08-11T23:57:25.730Z,93.40
2018-08-11T23:59:53.835Z,93.40
